Stettler, Canada
Current Conditions -  °F | °C
As of 5:00 PM on Wednesday 22 Oct 2014 (Local Time) from CYQF Reporting Station
Broken Clouds Broken Clouds  
Wind Chill: 59°   Ceiling: 25000
Heat Index: 59°   Visibility: 15mi
Dew Point: 30°   Wind: 15mph
Humidity: 34%   Direction: 190°S
Pressure: 29.6"   Gusts: NA
Location:  52.33°N, 112.68°W
Report Text: CYQF 222300Z 19013KT 15SM FEW060 SCT160 BKN250 15/M01 A2960 RMK CU1AC4CI3 CU TR SLP047 DENSITY ALT 3900FT
Loading
Personal Weather Stations






























Interactive Weather Map
Tropical Storm Tracking
New forecast layout! Learn more

10-Day Weather Forecast

Advertisements
Track Severe Weather on mobile